Time;durP1;ratioP1;P1;durP2;ratioP2;P2;SDS_P1;SDS_P2;PMS_P1;PMS_P2;Temp;Humidity;BMP_temperature;BMP_pressure;BME280_temperature;BME280_humidity;BME280_pressure;Samples;Min_cycle;Max_cycle;Signal;HPM_P1;HPM_P2
2021/12/26 00:01:34;;;;;;;8.50;3.20;;;;;;;-1.92;72.24;100827.16;5017028;28;20081;-74
2021/12/26 00:04:00;;;;;;;8.30;3.50;;;;;;;-1.96;72.37;100824.28;5020579;28;20152;-74
2021/12/26 00:06:28;;;;;;;7.15;3.22;;;;;;;-2.01;72.63;100829.06;5017882;28;20022;-73
2021/12/26 00:08:55;;;;;;;6.90;3.42;;;;;;;-2.02;72.34;100826.38;5016893;28;20029;-74
2021/12/26 00:11:21;;;;;;;9.50;3.38;;;;;;;-2.05;72.72;100829.59;5010847;28;20349;-74
2021/12/26 00:13:47;;;;;;;8.57;3.60;;;;;;;-2.05;72.85;100831.28;5016085;28;20283;-74
2021/12/26 00:16:12;;;;;;;8.85;4.00;;;;;;;-2.08;72.94;100828.50;5024195;28;20379;-74
2021/12/26 00:18:45;;;;;;;6.72;3.70;;;;;;;-2.10;73.79;100824.16;5021230;28;20030;-74
2021/12/26 00:21:11;;;;;;;6.82;3.40;;;;;;;-2.09;73.26;100827.59;5010063;28;20042;-74
2021/12/26 00:23:36;;;;;;;7.97;3.75;;;;;;;-2.10;73.87;100816.50;5015532;28;20018;-74
2021/12/26 00:26:02;;;;;;;7.35;3.10;;;;;;;-2.08;73.64;100814.06;5015990;28;20013;-74
2021/12/26 00:28:28;;;;;;;8.48;3.80;;;;;;;-2.06;74.49;100807.38;5016590;28;20105;-74
2021/12/26 00:30:54;;;;;;;7.68;3.63;;;;;;;-2.05;73.90;100813.41;5018979;28;20041;-74
2021/12/26 00:33:19;;;;;;;7.38;3.58;;;;;;;-2.07;73.44;100808.19;5015121;28;20042;-74
2021/12/26 00:35:45;;;;;;;7.53;3.17;;;;;;;-2.10;73.65;100808.84;5017260;28;20096;-74
2021/12/26 00:38:12;;;;;;;8.70;3.67;;;;;;;-2.13;73.18;100807.72;5019339;28;20088;-74
2021/12/26 00:40:38;;;;;;;7.85;3.42;;;;;;;-2.16;73.94;100802.38;5021273;28;20021;-74
2021/12/26 00:43:04;;;;;;;7.15;3.38;;;;;;;-2.16;73.98;100802.38;5013475;28;20546;-74
2021/12/26 00:45:29;;;;;;;6.63;3.53;;;;;;;-2.18;73.08;100798.84;5022214;28;20038;-74
2021/12/26 00:47:54;;;;;;;6.30;3.33;;;;;;;-2.19;73.73;100794.50;5016121;28;20060;-75
2021/12/26 00:50:24;;;;;;;8.18;3.55;;;;;;;-2.20;73.26;100800.38;5022963;28;20292;-75
2021/12/26 00:52:49;;;;;;;;;;;;;;;-2.16;74.85;100799.84;5013882;28;20056;-75
2021/12/26 00:55:16;;;;;;;9.48;3.50;;;;;;;-2.21;74.42;100796.94;5023039;28;20140;-75
2021/12/26 00:57:41;;;;;;;7.75;3.65;;;;;;;-2.23;74.26;100806.16;5020858;28;20074;-75
2021/12/26 01:00:11;;;;;;;8.32;3.45;;;;;;;-2.24;73.72;100803.50;5016660;28;20023;-75
2021/12/26 01:02:37;;;;;;;7.25;3.45;;;;;;;-2.24;73.34;100804.38;5020276;28;20132;-75
2021/12/26 01:05:06;;;;;;;8.32;3.80;;;;;;;-2.23;73.38;100810.38;5013684;28;20232;-75
2021/12/26 01:07:53;;;;;;;7.90;3.78;;;;;;;-2.21;74.67;100814.81;5013350;28;20037;-75
2021/12/26 01:10:21;;;;;;;8.80;3.70;;;;;;;-2.19;74.39;100808.16;5021073;28;20058;-75
2021/12/26 01:12:47;;;;;;;;;;;;;;;-2.11;75.42;100813.84;5011813;28;20080;-75
2021/12/26 01:15:13;;;;;;;8.05;3.70;;;;;;;-2.14;73.94;100811.06;5015387;28;19916;-75
2021/12/26 01:17:41;;;;;;;7.90;3.85;;;;;;;-2.14;73.16;100808.50;5014559;28;20050;-75
2021/12/26 01:20:13;;;;;;;8.07;3.58;;;;;;;-2.12;74.18;100814.59;5018315;28;20032;-75
2021/12/26 01:22:39;;;;;;;9.07;3.75;;;;;;;-2.10;74.38;100807.94;5019568;28;20029;-75
2021/12/26 01:25:06;;;;;;;8.73;4.05;;;;;;;-2.06;74.51;100809.06;5017684;28;20090;-75
2021/12/26 01:27:32;;;;;;;7.45;3.50;;;;;;;-2.05;73.92;100804.06;5020295;28;20060;-75
2021/12/26 01:29:59;;;;;;;6.78;3.78;;;;;;;-2.05;73.98;100796.41;5018904;28;20029;-75
2021/12/26 01:32:24;;;;;;;8.45;4.00;;;;;;;-2.04;74.29;100803.31;5018060;28;20033;-75
2021/12/26 01:34:50;;;;;;;7.90;3.80;;;;;;;-2.00;73.96;100804.41;5012914;28;20192;-75
2021/12/26 01:37:15;;;;;;;11.05;4.03;;;;;;;-2.00;74.16;100799.28;5012217;28;20189;-75
2021/12/26 01:39:41;;;;;;;8.10;3.83;;;;;;;-1.99;74.40;100806.19;5013819;28;20029;-75
2021/12/26 01:42:09;;;;;;;8.07;3.90;;;;;;;-1.97;73.87;100800.44;5019697;28;20033;-75
2021/12/26 01:44:34;;;;;;;8.52;3.97;;;;;;;-1.94;74.23;100792.06;5020624;28;20101;-75
2021/12/26 01:47:01;;;;;;;9.02;3.92;;;;;;;-1.93;74.28;100791.31;5018574;28;20184;-76
2021/12/26 01:49:29;;;;;;;8.27;3.50;;;;;;;-1.95;73.67;100793.75;5022287;28;20030;-76
2021/12/26 01:51:58;;;;;;;8.05;4.03;;;;;;;-1.95;73.35;100796.31;5024957;28;20046;-76
2021/12/26 01:54:31;;;;;;;;;;;;;;;-1.88;75.38;100786.53;5012637;28;20038;-75
2021/12/26 01:57:00;;;;;;;8.43;3.80;;;;;;;-1.89;73.88;100787.31;5014200;28;19909;-75
2021/12/26 01:59:27;;;;;;;8.25;3.90;;;;;;;-1.88;74.39;100796.75;5019221;28;20036;-76
2021/12/26 02:01:55;;;;;;;7.25;4.10;;;;;;;-1.87;74.38;100790.88;5014814;28;20036;-76
2021/12/26 02:04:21;;;;;;;7.38;3.95;;;;;;;-1.86;73.97;100797.75;5022773;28;20072;-76
2021/12/26 02:06:46;;;;;;;9.45;3.90;;;;;;;-1.86;74.26;100793.53;5017898;28;20026;-76
2021/12/26 02:09:12;;;;;;;8.32;3.72;;;;;;;-1.83;73.68;100787.75;5020120;28;20025;-76
2021/12/26 02:11:39;;;;;;;8.10;4.05;;;;;;;-1.84;73.46;100785.97;5019767;28;20030;-76
2021/12/26 02:14:04;;;;;;;9.85;4.30;;;;;;;-1.83;72.98;100785.22;5021994;28;20029;-76
2021/12/26 02:16:29;;;;;;;8.02;3.78;;;;;;;-1.84;72.21;100785.97;5016906;28;20053;-76
2021/12/26 02:18:55;;;;;;;10.73;4.32;;;;;;;-1.86;72.88;100787.53;5018027;28;20030;-76
2021/12/26 02:24:01;;;;;;;9.18;3.97;;;;;;;-1.87;72.28;100786.63;5009621;28;20034;-76
2021/12/26 02:29:10;;;;;;;8.68;4.18;;;;;;;-1.87;72.21;100780.66;5018052;28;20539;-76
2021/12/26 02:31:36;;;;;;;9.32;4.18;;;;;;;-1.89;72.48;100778.00;5020281;28;20268;-77
2021/12/26 02:34:02;;;;;;;7.30;4.18;;;;;;;-1.88;72.88;100773.75;5022785;28;20030;-77
2021/12/26 02:36:27;;;;;;;10.50;4.85;;;;;;;-1.89;72.44;100777.09;5019388;28;20059;-77
2021/12/26 02:38:53;;;;;;;10.55;4.30;;;;;;;-1.89;73.78;100766.91;5018908;28;20328;-76
2021/12/26 02:41:18;;;;;;;9.40;4.13;;;;;;;-1.89;73.29;100765.22;5014099;28;20052;-77
2021/12/26 02:43:44;;;;;;;8.32;4.07;;;;;;;-1.88;73.76;100763.53;5017399;28;20038;-77
2021/12/26 02:46:09;;;;;;;9.07;4.43;;;;;;;-1.86;73.54;100762.00;5013012;28;20069;-77
2021/12/26 02:48:36;;;;;;;8.98;4.13;;;;;;;-1.87;73.09;100763.66;5015220;28;20113;-77
2021/12/26 02:51:03;;;;;;;8.88;4.75;;;;;;;-1.89;72.73;100757.56;5016752;28;20030;-77
2021/12/26 02:53:29;;;;;;;10.80;4.53;;;;;;;-1.90;73.25;100755.78;5011119;28;20352;-77
2021/12/26 02:55:57;;;;;;;9.05;4.00;;;;;;;-1.89;73.16;100761.78;5010539;28;20030;-77
2021/12/26 02:58:23;;;;;;;8.90;4.22;;;;;;;-1.89;72.30;100762.66;5008670;28;20461;-77
2021/12/26 03:00:59;;;;;;;9.02;4.38;;;;;;;-1.88;72.84;100764.44;5019282;28;20080;-77
2021/12/26 03:03:24;;;;;;;10.75;4.38;;;;;;;-1.88;72.68;100763.53;5013623;28;20021;-77
2021/12/26 03:06:03;;;;;;;7.65;4.15;;;;;;;-1.88;73.54;100767.00;5010654;28;20037;-77
2021/12/26 03:08:30;;;;;;;8.70;4.32;;;;;;;-1.85;73.43;100779.13;5010162;28;20026;-77
2021/12/26 03:10:56;;;;;;;10.38;4.70;;;;;;;-1.88;73.72;100761.91;5013928;28;20273;-77
2021/12/26 03:13:22;;;;;;;9.30;4.47;;;;;;;-1.87;74.42;100771.31;5010346;28;20286;-77
2021/12/26 03:15:47;;;;;;;10.35;4.35;;;;;;;-1.86;74.40;100765.44;5017199;28;20082;-77
2021/12/26 03:18:13;;;;;;;7.72;4.18;;;;;;;-1.85;73.66;100763.78;5015653;28;20231;-77
2021/12/26 03:20:42;;;;;;;9.95;4.00;;;;;;;-1.84;74.01;100755.31;5016968;28;20409;-77
2021/12/26 03:23:10;;;;;;;7.72;4.05;;;;;;;-1.83;73.54;100754.56;5011536;28;20028;-77
2021/12/26 03:25:37;;;;;;;9.38;4.03;;;;;;;-1.85;73.79;100751.91;5009980;28;20042;-77
2021/12/26 03:28:05;;;;;;;9.15;4.38;;;;;;;-1.84;73.94;100745.13;5015452;28;20086;-77
2021/12/26 03:30:31;;;;;;;6.90;3.78;;;;;;;-1.84;74.33;100740.00;5014154;28;20022;-77
2021/12/26 03:32:58;;;;;;;8.55;4.28;;;;;;;-1.85;73.80;100741.69;5016640;28;20029;-77
2021/12/26 03:35:25;;;;;;;8.63;4.18;;;;;;;-1.88;74.34;100733.81;5012584;28;20046;-78
2021/12/26 03:37:52;;;;;;;7.85;4.10;;;;;;;-1.91;73.99;100733.59;5014066;28;20057;-77
2021/12/26 03:40:17;;;;;;;7.07;3.85;;;;;;;-1.94;73.74;100734.25;5012592;28;20037;-77
2021/12/26 03:42:42;;;;;;;9.40;4.20;;;;;;;-1.96;73.47;100743.44;5020340;28;20069;-78
2021/12/26 03:45:09;;;;;;;9.00;3.92;;;;;;;-2.01;73.52;100744.81;5007578;28;20121;-78
2021/12/26 03:47:36;;;;;;;9.05;4.00;;;;;;;-2.05;73.57;100740.25;5015051;28;20036;-78
2021/12/26 03:50:03;;;;;;;7.40;3.70;;;;;;;-2.07;73.87;100743.47;5016656;28;20225;-78
2021/12/26 03:52:28;;;;;;;8.88;4.13;;;;;;;-2.10;73.86;100744.13;5047917;28;20034;-77
2021/12/26 03:54:54;;;;;;;8.52;4.35;;;;;;;-2.14;73.46;100742.16;5024231;28;20210;-78
2021/12/26 03:57:20;;;;;;;9.57;4.78;;;;;;;-2.16;74.03;100751.34;5012375;28;20021;-79
2021/12/26 03:59:46;;;;;;;11.20;4.43;;;;;;;-2.19;75.04;100748.56;5020492;28;20105;-78
2021/12/26 04:02:12;;;;;;;8.38;4.32;;;;;;;-2.21;74.53;100739.94;5014021;28;20057;-79
2021/12/26 04:04:38;;;;;;;10.27;4.38;;;;;;;-2.25;74.26;100741.34;5023106;28;20033;-79
2021/12/26 04:07:04;;;;;;;8.88;3.70;;;;;;;-2.26;74.56;100739.56;5018437;28;20033;-78
2021/12/26 04:09:29;;;;;;;8.32;4.25;;;;;;;-2.30;74.08;100733.34;5021893;28;20237;-78
2021/12/26 04:11:55;;;;;;;8.10;4.20;;;;;;;-2.32;73.49;100745.13;5025600;28;20029;-78
2021/12/26 04:14:20;;;;;;;8.65;4.45;;;;;;;-2.34;73.79;100733.91;5021559;28;20241;-78
2021/12/26 04:16:46;;;;;;;8.43;4.30;;;;;;;-2.35;74.42;100734.69;5013548;28;20045;-79
2021/12/26 04:19:11;;;;;;;8.85;4.18;;;;;;;-2.39;74.81;100726.69;5014489;28;20034;-79
2021/12/26 04:21:36;;;;;;;10.43;4.68;;;;;;;-2.40;75.36;100730.00;5041109;28;20034;-79
2021/12/26 04:24:03;;;;;;;9.32;4.15;;;;;;;-2.42;75.11;100737.56;5018694;28;20025;-79
2021/12/26 04:26:30;;;;;;;8.57;4.28;;;;;;;-2.43;74.58;100735.78;5018733;28;20217;-79
2021/12/26 04:28:56;;;;;;;7.85;3.83;;;;;;;-2.46;74.70;100731.34;5024722;28;20323;-80
2021/12/26 04:31:21;;;;;;;9.02;4.35;;;;;;;-2.47;75.24;100731.25;5015711;28;20026;-80
2021/12/26 04:33:47;;;;;;;7.60;3.92;;;;;;;-2.47;75.14;100733.78;5011450;28;20038;-80
2021/12/26 04:36:13;;;;;;;10.18;4.47;;;;;;;-2.50;75.77;100729.34;5016029;28;20101;-80
2021/12/26 04:38:39;;;;;;;8.90;4.40;;;;;;;-2.51;76.25;100739.44;5019772;28;20030;-81
2021/12/26 04:41:05;;;;;;;9.68;4.22;;;;;;;-2.57;75.95;100726.22;5018687;28;20219;-81
2021/12/26 04:43:34;;;;;;;9.15;4.10;;;;;;;-2.60;76.45;100724.34;5025000;28;20022;-81
2021/12/26 04:46:01;;;;;;;10.77;4.20;;;;;;;-2.60;76.56;100716.69;5021942;28;20328;-81
2021/12/26 04:48:26;;;;;;;8.98;4.35;;;;;;;-2.62;75.85;100718.25;5018520;28;20042;-81
2021/12/26 04:50:51;;;;;;;9.88;4.32;;;;;;;-2.65;76.05;100724.00;5020798;28;20326;-81
2021/12/26 04:53:17;;;;;;;7.60;4.00;;;;;;;-2.67;75.80;100720.44;5020684;28;21251;-81
2021/12/26 04:55:42;;;;;;;9.30;4.82;;;;;;;-2.71;76.37;100713.34;5014907;28;20032;-82
2021/12/26 04:58:08;;;;;;;8.30;4.28;;;;;;;-2.71;76.75;100717.53;5021736;28;20180;-82
2021/12/26 05:00:33;;;;;;;9.70;4.53;;;;;;;-2.73;76.43;100714.88;5023931;28;20331;-82
2021/12/26 05:03:02;;;;;;;8.18;4.13;;;;;;;-2.75;76.68;100721.53;5012186;28;20106;-82
2021/12/26 05:05:28;;;;;;;8.48;3.92;;;;;;;-2.76;76.86;100718.88;5011892;28;20038;-82
2021/12/26 05:07:54;;;;;;;8.88;4.30;;;;;;;-2.79;77.30;100719.53;5014266;28;20095;-82
2021/12/26 05:10:20;;;;;;;10.02;4.40;;;;;;;-2.80;77.00;100713.53;5018702;28;20280;-82
2021/12/26 05:12:47;;;;;;;11.05;4.28;;;;;;;-2.82;77.02;100715.09;5019705;28;20046;-82
2021/12/26 05:15:13;;;;;;;10.55;4.60;;;;;;;-2.85;77.27;100708.88;5022697;28;20076;-82
2021/12/26 05:17:40;;;;;;;8.73;4.10;;;;;;;-2.85;77.05;100709.75;5017655;28;20269;-83
2021/12/26 05:20:07;;;;;;;9.63;4.13;;;;;;;-2.87;76.95;100712.97;5014445;28;20053;-83
2021/12/26 05:22:32;;;;;;;9.60;4.55;;;;;;;-2.88;77.03;100709.53;5012278;28;20280;-83
2021/12/26 05:24:57;;;;;;;9.63;4.75;;;;;;;-2.88;76.42;100714.63;5020530;28;20021;-82
2021/12/26 05:27:23;;;;;;;8.55;4.10;;;;;;;-2.88;76.84;100707.00;5019020;28;20042;-83
2021/12/26 05:29:48;;;;;;;10.63;4.40;;;;;;;-2.87;77.10;100707.88;5013769;28;20284;-83
2021/12/26 05:32:13;;;;;;;10.60;4.43;;;;;;;-2.89;77.17;100704.31;5023010;28;20033;-83
2021/12/26 05:34:39;;;;;;;8.48;4.28;;;;;;;-2.91;77.17;100704.22;5013978;28;20045;-83
2021/12/26 05:37:04;;;;;;;9.05;4.20;;;;;;;-2.91;76.63;100700.75;5022160;28;20103;-83
2021/12/26 05:39:29;;;;;;;8.68;4.03;;;;;;;-2.92;76.35;100696.44;5020105;28;20096;-84
2021/12/26 05:41:55;;;;;;;10.13;4.43;;;;;;;-2.93;77.22;100692.13;5023444;28;20030;-83
2021/12/26 05:44:20;;;;;;;11.38;4.55;;;;;;;-2.93;77.46;100687.03;5013522;28;20065;-83
2021/12/26 05:46:45;;;;;;;8.73;4.43;;;;;;;-2.95;77.26;100686.91;5022050;28;20296;-84
2021/12/26 05:49:11;;;;;;;7.65;4.13;;;;;;;-2.98;77.53;100682.47;5016192;28;20025;-83
2021/12/26 05:51:37;;;;;;;10.65;4.78;;;;;;;-2.99;77.37;100688.31;5022425;28;20026;-84
2021/12/26 05:54:04;;;;;;;8.48;4.68;;;;;;;-2.98;77.23;100686.69;5022286;28;20050;-84
2021/12/26 05:56:29;;;;;;;8.93;4.68;;;;;;;-3.01;77.23;100677.13;5019555;28;20093;-84
2021/12/26 05:58:54;;;;;;;8.18;4.63;;;;;;;-3.03;77.49;100681.22;5009031;28;20069;-84
2021/12/26 06:01:20;;;;;;;8.93;4.35;;;;;;;-3.04;77.13;100678.53;5019078;28;20061;-84
2021/12/26 06:03:45;;;;;;;8.60;4.30;;;;;;;-3.05;77.21;100677.66;5017498;28;20272;-85
2021/12/26 06:06:10;;;;;;;9.55;4.30;;;;;;;-3.07;77.51;100675.78;5020696;28;20137;-84
2021/12/26 06:08:36;;;;;;;7.68;4.47;;;;;;;-3.08;77.53;100680.00;5016981;28;20062;-85
2021/12/26 06:11:01;;;;;;;10.25;4.68;;;;;;;-3.11;77.20;100667.03;5011386;28;20399;-84
2021/12/26 06:13:27;;;;;;;8.20;4.07;;;;;;;-3.10;77.48;100670.44;5021475;28;20076;-85
2021/12/26 06:15:54;;;;;;;10.45;4.38;;;;;;;-3.13;77.08;100676.19;5018018;28;20026;-84
2021/12/26 06:18:20;;;;;;;8.30;4.32;;;;;;;-3.12;77.90;100675.44;5018845;28;20018;-85
2021/12/26 06:20:45;;;;;;;10.02;4.75;;;;;;;-3.13;77.30;100671.09;5014633;28;20045;-84
2021/12/26 06:23:12;;;;;;;9.45;4.13;;;;;;;-3.13;77.62;100666.00;5017852;28;20022;-85
2021/12/26 06:25:38;;;;;;;8.38;4.50;;;;;;;-3.14;77.39;100666.81;5015448;28;20172;-85
2021/12/26 06:28:04;;;;;;;9.82;4.65;;;;;;;-3.16;77.52;100668.31;5020154;28;21426;-85
2021/12/26 06:30:29;;;;;;;8.80;4.50;;;;;;;-3.19;77.62;100671.53;5012501;28;20053;-85
2021/12/26 06:32:55;;;;;;;8.77;4.68;;;;;;;-3.19;77.78;100680.84;5018071;28;20017;-85
2021/12/26 06:35:20;;;;;;;8.82;4.55;;;;;;;-3.20;77.61;100679.06;5044690;28;20271;-86
2021/12/26 06:37:45;;;;;;;10.93;4.30;;;;;;;-3.21;77.34;100675.63;5017034;28;20029;-85
2021/12/26 06:40:12;;;;;;;9.35;4.65;;;;;;;-3.22;77.99;100673.84;5011825;28;20018;-84
2021/12/26 06:42:41;;;;;;;11.02;4.70;;;;;;;-3.22;77.97;100676.38;5024939;28;20356;-85
2021/12/26 06:45:09;;;;;;;8.77;4.65;;;;;;;-3.23;78.26;100678.81;5007913;28;20010;-85
2021/12/26 06:47:36;;;;;;;11.63;4.65;;;;;;;-3.24;78.08;100682.16;5010392;28;20172;-84
2021/12/26 06:50:02;;;;;;;9.38;4.57;;;;;;;-3.24;78.31;100682.16;5011742;28;20038;-86
2021/12/26 06:52:27;;;;;;;7.60;4.05;;;;;;;-3.24;78.29;100682.16;5011260;28;20021;-85
2021/12/26 06:54:52;;;;;;;9.55;4.70;;;;;;;-3.28;77.86;100681.03;5012218;28;20026;-86
2021/12/26 06:57:18;;;;;;;9.70;4.85;;;;;;;-3.27;78.34;100676.81;5010024;28;20022;-85
2021/12/26 06:59:43;;;;;;;9.43;4.18;;;;;;;-3.27;78.37;100682.81;5009525;28;20026;-86
2021/12/26 07:02:09;;;;;;;9.65;4.50;;;;;;;-3.28;77.97;100690.34;5014785;28;20053;-86
2021/12/26 07:04:34;;;;;;;9.27;4.20;;;;;;;-3.32;78.76;100674.84;5018870;28;20036;-86
2021/12/26 07:06:59;;;;;;;11.13;4.70;;;;;;;-3.30;79.14;100679.13;5017678;28;20059;-86
2021/12/26 07:09:25;;;;;;;9.40;4.93;;;;;;;-3.28;78.94;100680.16;5040342;28;20031;-86
2021/12/26 07:11:50;;;;;;;10.23;4.82;;;;;;;-3.27;78.29;100669.16;5018652;28;20081;-86
2021/12/26 07:14:16;;;;;;;8.88;4.57;;;;;;;-3.30;79.13;100671.47;5014740;28;20332;-86
2021/12/26 07:16:41;;;;;;;8.25;4.10;;;;;;;-3.31;79.15;100675.72;5015806;28;20025;-86
2021/12/26 07:19:06;;;;;;;8.70;4.38;;;;;;;-3.32;78.74;100669.72;5013176;28;20153;-86
2021/12/26 07:21:31;;;;;;;8.18;4.57;;;;;;;-3.31;78.43;100680.81;5009147;28;20038;-86
2021/12/26 07:23:57;;;;;;;10.82;4.53;;;;;;;-3.34;78.23;100673.81;5020098;28;20021;-86
2021/12/26 07:26:24;;;;;;;10.82;4.70;;;;;;;-3.34;78.15;100681.44;5011445;28;20030;-86
2021/12/26 07:28:49;;;;;;;10.50;5.20;;;;;;;-3.34;78.99;100678.03;5009040;28;20022;-86
2021/12/26 07:31:15;;;;;;;11.65;4.80;;;;;;;-3.32;78.85;100679.91;5007137;28;20080;-87
2021/12/26 07:33:40;;;;;;;12.60;5.38;;;;;;;-3.32;79.71;100679.91;5019082;28;20029;-86
2021/12/26 07:36:06;;;;;;;9.07;5.13;;;;;;;-3.30;79.48;100676.59;5016601;28;20169;-86
2021/12/26 07:38:31;;;;;;;10.75;4.82;;;;;;;-3.29;79.37;100668.19;5015472;28;20022;-86
2021/12/26 07:40:56;;;;;;;9.50;4.53;;;;;;;-3.27;78.77;100666.63;5012383;28;20022;-87
2021/12/26 07:43:22;;;;;;;9.70;4.68;;;;;;;-3.25;79.10;100671.06;5026383;28;20018;-86
2021/12/26 07:45:47;;;;;;;9.25;4.63;;;;;;;-3.25;79.55;100673.63;5017611;28;20022;-86
2021/12/26 07:48:12;;;;;;;9.18;4.68;;;;;;;-3.24;79.72;100666.88;5013285;28;20037;-86
2021/12/26 07:50:38;;;;;;;9.57;4.60;;;;;;;-3.22;79.47;100672.97;5008602;28;20319;-87
2021/12/26 07:53:08;;;;;;;10.60;5.28;;;;;;;-3.21;79.67;100669.66;5016090;28;20256;-86
2021/12/26 07:55:34;;;;;;;9.88;4.95;;;;;;;-3.18;79.78;100677.53;5018743;28;20028;-87
2021/12/26 07:57:59;;;;;;;10.77;5.32;;;;;;;-3.17;78.94;100676.75;5009984;28;20252;-86
2021/12/26 08:00:25;;;;;;;8.55;4.78;;;;;;;-3.15;79.42;100677.75;5011617;28;20144;-86
2021/12/26 08:02:52;;;;;;;10.52;5.13;;;;;;;-3.13;80.17;100685.50;5010642;28;20276;-86
2021/12/26 08:05:18;;;;;;;13.45;4.97;;;;;;;-3.12;80.35;100680.53;5018901;28;20197;-87
2021/12/26 08:07:43;;;;;;;11.25;4.88;;;;;;;-3.10;79.83;100684.09;5013060;28;20094;-87
2021/12/26 08:10:09;;;;;;;10.05;5.07;;;;;;;-3.08;80.52;100680.00;5021555;28;20024;-87
2021/12/26 08:12:35;;;;;;;11.40;5.60;;;;;;;-3.05;79.71;100687.00;5017727;28;20125;-87
2021/12/26 08:15:02;;;;;;;10.45;5.00;;;;;;;-3.04;80.07;100689.66;5010875;28;20034;-87
2021/12/26 08:17:31;;;;;;;10.88;5.43;;;;;;;-3.01;79.98;100689.88;5009123;28;20022;-87
2021/12/26 08:19:58;;;;;;;11.32;5.60;;;;;;;-2.99;80.24;100690.88;5021990;28;20022;-87
2021/12/26 08:22:24;;;;;;;13.70;6.18;;;;;;;-2.95;81.29;100686.00;5013736;28;20052;-87
2021/12/26 08:24:49;;;;;;;10.57;5.13;;;;;;;-2.92;80.97;100689.69;5018906;28;20265;-88
2021/12/26 08:27:14;;;;;;;10.75;5.72;;;;;;;-2.89;81.75;100684.81;5020562;28;20080;-87
2021/12/26 08:29:40;;;;;;;12.40;5.55;;;;;;;-2.86;81.42;100686.69;5019149;28;20018;-88
2021/12/26 08:32:06;;;;;;;10.35;5.25;;;;;;;-2.83;81.18;100684.38;5013245;28;20019;-87
2021/12/26 08:34:32;;;;;;;16.00;6.38;;;;;;;-2.78;81.09;100694.91;5015269;28;20053;-86
2021/12/26 08:37:02;;;;;;;11.07;5.88;;;;;;;-2.75;81.34;100690.94;5022359;28;20025;-87
2021/12/26 08:39:30;;;;;;;11.95;5.70;;;;;;;-2.70;81.66;100676.84;5020241;28;20056;-87
2021/12/26 08:41:56;;;;;;;11.05;5.70;;;;;;;-2.66;81.48;100678.88;5017709;28;20025;-87
2021/12/26 08:44:22;;;;;;;14.45;6.07;;;;;;;-2.62;81.64;100683.41;5034771;28;20439;-86
2021/12/26 08:46:47;;;;;;;12.52;6.55;;;;;;;-2.58;81.66;100681.09;5013862;28;20038;-85
2021/12/26 08:49:14;;;;;;;13.90;6.47;;;;;;;-2.54;81.91;100686.53;5020743;28;20108;-87
2021/12/26 08:51:40;;;;;;;12.25;5.80;;;;;;;-2.49;81.51;100671.53;5017993;28;20042;-85
2021/12/26 08:54:05;;;;;;;14.30;6.45;;;;;;;-2.46;81.85;100674.34;5017571;28;20022;-85
2021/12/26 08:56:31;;;;;;;11.48;5.38;;;;;;;-2.41;81.42;100674.69;5022012;28;20029;-85
2021/12/26 08:58:56;;;;;;;12.63;6.18;;;;;;;-2.37;81.66;100675.00;5018918;28;20053;-85
2021/12/26 09:01:22;;;;;;;13.00;6.22;;;;;;;-2.33;81.73;100671.91;5019538;28;20089;-85
2021/12/26 09:03:47;;;;;;;14.35;6.60;;;;;;;-2.29;81.41;100679.00;5022073;28;20037;-85
2021/12/26 09:06:13;;;;;;;12.68;6.13;;;;;;;-2.24;81.32;100670.81;5022094;28;20044;-84
2021/12/26 09:08:38;;;;;;;14.77;7.07;;;;;;;-2.20;80.65;100672.75;5021157;28;20028;-84
2021/12/26 09:11:04;;;;;;;15.60;6.72;;;;;;;-2.18;81.18;100671.22;5022736;28;20057;-85
2021/12/26 09:13:30;;;;;;;12.30;6.25;;;;;;;-2.15;80.75;100672.31;5020792;28;20253;-85
2021/12/26 09:15:55;;;;;;;14.57;6.75;;;;;;;-2.12;80.48;100676.75;5015608;28;20045;-84
2021/12/26 09:18:21;;;;;;;12.05;6.47;;;;;;;-2.09;81.77;100671.88;5022213;28;20064;-84
2021/12/26 09:20:46;;;;;;;13.02;6.45;;;;;;;-2.06;81.22;100666.09;5015341;28;20307;-84
2021/12/26 09:23:12;;;;;;;13.38;6.88;;;;;;;-2.04;81.12;100668.00;5016950;28;20177;-84
2021/12/26 09:25:37;;;;;;;13.05;6.15;;;;;;;-1.99;81.36;100669.19;5022227;28;20026;-84
2021/12/26 09:28:02;;;;;;;16.10;6.88;;;;;;;-1.96;80.20;100674.50;5022908;28;20308;-84
2021/12/26 09:30:28;;;;;;;13.55;6.30;;;;;;;-1.94;80.85;100672.06;5019173;28;20291;-84
2021/12/26 09:32:54;;;;;;;16.00;6.75;;;;;;;-1.92;80.56;100658.63;5022056;28;20041;-83
2021/12/26 09:35:19;;;;;;;14.68;6.80;;;;;;;-1.88;80.96;100667.41;5021582;28;20025;-84
2021/12/26 09:37:45;;;;;;;15.38;6.97;;;;;;;-1.83;81.01;100675.41;5022404;28;20053;-84
2021/12/26 09:40:12;;;;;;;15.52;7.10;;;;;;;-1.81;81.07;100658.50;5018761;28;20046;-84
2021/12/26 09:42:38;;;;;;;14.75;6.75;;;;;;;-1.77;80.56;100669.06;5021864;28;20037;-83
2021/12/26 09:45:05;;;;;;;16.00;7.00;;;;;;;-1.74;80.34;100670.91;5022747;28;20285;-82
2021/12/26 09:47:31;;;;;;;15.27;7.72;;;;;;;-1.71;80.57;100671.13;5019793;28;20046;-82
2021/12/26 09:49:56;;;;;;;14.05;6.90;;;;;;;-1.68;81.02;100668.81;5030526;28;20041;-81
2021/12/26 09:52:22;;;;;;;13.63;7.13;;;;;;;-1.65;81.74;100671.59;5022450;28;20083;-81
2021/12/26 09:54:47;;;;;;;13.20;6.35;;;;;;;-1.61;81.64;100676.13;5011857;28;20079;-81
2021/12/26 09:57:13;;;;;;;15.90;7.43;;;;;;;-1.57;81.38;100672.09;5020295;28;20287;-80
2021/12/26 09:59:43;;;;;;;16.50;8.00;;;;;;;-1.53;81.00;100675.78;5020912;28;20026;-81
2021/12/26 10:02:11;;;;;;;14.82;7.07;;;;;;;-1.49;81.30;100672.63;5017689;28;20072;-80
2021/12/26 10:04:38;;;;;;;18.63;8.03;;;;;;;-1.45;81.55;100666.94;5012488;28;20107;-80
2021/12/26 10:07:09;;;;;;;15.77;7.70;;;;;;;-1.43;81.38;100661.16;5021740;28;20104;-80
2021/12/26 10:09:37;;;;;;;16.55;7.45;;;;;;;-1.40;81.54;100650.28;5012766;28;20069;-79
2021/12/26 10:12:04;;;;;;;17.83;8.35;;;;;;;-1.35;81.58;100646.34;5023598;28;20101;-80
2021/12/26 10:14:33;;;;;;;17.60;8.02;;;;;;;-1.31;81.29;100640.66;5018095;28;20075;-79
2021/12/26 10:17:01;;;;;;;17.52;8.63;;;;;;;-1.28;81.39;100645.97;5017713;28;20042;-79
2021/12/26 10:19:32;;;;;;;15.13;7.45;;;;;;;-1.26;81.30;100641.88;5034402;28;20282;-79
2021/12/26 10:21:58;;;;;;;15.35;7.43;;;;;;;-1.23;81.29;100636.97;5021867;28;20272;-78
2021/12/26 10:24:32;;;;;;;16.92;8.57;;;;;;;-1.20;81.30;100630.28;5022416;28;20353;-79
2021/12/26 10:27:06;;;;;;;18.67;8.18;;;;;;;-1.17;80.97;100630.47;5017772;28;20307;-79
2021/12/26 10:29:40;;;;;;;19.40;7.75;;;;;;;-1.15;80.93;100623.81;5017058;28;20025;-78
2021/12/26 10:32:19;;;;;;;16.25;7.70;;;;;;;-1.13;80.66;100614.56;5028165;28;20183;-78
2021/12/26 10:34:49;;;;;;;17.20;8.80;;;;;;;-1.11;80.12;100615.56;5019342;28;20092;-78
2021/12/26 10:37:18;;;;;;;;;;;;;;;-1.07;81.12;100623.53;5022011;28;20037;-78
2021/12/26 10:39:48;;;;;;;;;;;;;;;-1.04;80.85;100607.53;5021959;28;20144;-78
2021/12/26 10:42:22;;;;;;;19.85;8.60;;;;;;;-1.05;81.30;100616.84;5023550;28;19994;-78
2021/12/26 10:44:52;;;;;;;20.02;9.00;;;;;;;-1.01;81.11;100617.03;5019800;28;20243;-78
2021/12/26 10:47:23;;;;;;;19.67;9.00;;;;;;;-0.99;81.76;100613.81;5017098;28;20053;-77
2021/12/26 10:49:57;;;;;;;20.08;9.18;;;;;;;-0.96;81.97;100613.13;5020784;28;20089;-77
2021/12/26 10:52:31;;;;;;;20.63;9.30;;;;;;;-0.94;81.77;100609.00;5021782;28;20029;-77
2021/12/26 10:55:02;;;;;;;18.02;9.38;;;;;;;-0.91;81.66;100609.22;5019603;28;20059;-77
2021/12/26 10:57:39;;;;;;;19.13;9.25;;;;;;;-0.88;81.96;100599.19;5015816;28;20030;-77
2021/12/26 11:00:17;;;;;;;21.65;9.48;;;;;;;-0.86;81.86;100604.41;5019433;28;20029;-77
2021/12/26 11:02:49;;;;;;;21.85;9.75;;;;;;;-0.84;81.49;100603.72;5019686;28;20195;-77
2021/12/26 11:05:15;;;;;;;18.73;9.88;;;;;;;-0.81;82.27;100596.25;5019829;28;20026;-77
2021/12/26 11:07:44;;;;;;;20.45;9.13;;;;;;;-0.79;81.28;100594.66;5013171;28;20034;-77
2021/12/26 11:10:24;;;;;;;19.50;9.95;;;;;;;-0.76;81.98;100591.41;5012411;28;20220;-77
2021/12/26 11:12:53;;;;;;;18.67;9.80;;;;;;;-0.74;81.88;100587.28;5018674;28;20160;-77
2021/12/26 11:15:22;;;;;;;;;;;;;;;-0.68;82.39;100581.66;5016847;28;20053;-76
2021/12/26 11:18:09;;;;;;;22.07;9.70;;;;;;;-0.66;81.94;100580.13;5018866;28;20016;-73
2021/12/26 11:20:39;;;;;;;24.05;9.27;;;;;;;-0.63;82.62;100588.84;5019861;28;20037;-76
2021/12/26 11:23:11;;;;;;;21.15;9.88;;;;;;;-0.59;82.72;100589.97;5022015;28;20057;-76
2021/12/26 11:25:42;;;;;;;21.92;10.13;;;;;;;-0.58;82.30;100584.94;5019981;28;20026;-75
2021/12/26 11:28:11;;;;;;;21.73;10.00;;;;;;;-0.54;82.87;100583.44;5019140;28;20029;-75